createdAt,value
2022-12-05T00:01:42.485Z,29.13
2022-12-05T00:04:14.062Z,29.53
2022-12-05T00:06:43.032Z,31.10
2022-12-05T00:09:15.050Z,27.23
2022-12-05T00:11:45.475Z,26.80
2022-12-05T00:14:13.279Z,30.30
2022-12-05T00:16:43.033Z,28.17
2022-12-05T00:19:14.706Z,28.43
2022-12-05T00:21:42.418Z,27.10
2022-12-05T00:24:15.075Z,28.00
2022-12-05T00:26:43.922Z,28.80
2022-12-05T00:29:11.157Z,28.13
2022-12-05T00:31:39.675Z,29.20
2022-12-05T00:34:06.731Z,30.00
2022-12-05T00:36:36.999Z,28.93
2022-12-05T00:39:11.239Z,27.10
2022-12-05T00:41:38.576Z,29.27
2022-12-05T00:44:05.969Z,29.00
2022-12-05T00:46:34.672Z,29.90
2022-12-05T00:49:03.944Z,29.60
2022-12-05T00:51:35.968Z,29.73
2022-12-05T00:54:07.560Z,29.67
2022-12-05T00:56:37.498Z,31.50
2022-12-05T00:59:05.202Z,27.23
2022-12-05T01:01:38.988Z,27.97
2022-12-05T01:04:15.132Z,27.60
2022-12-05T01:06:43.585Z,26.20
2022-12-05T01:09:14.471Z,28.23
2022-12-05T01:11:42.019Z,27.73
2022-12-05T01:14:21.231Z,28.30
2022-12-05T01:16:52.609Z,25.60
2022-12-05T01:19:39.491Z,26.00
2022-12-05T01:22:06.234Z,30.47
2022-12-05T01:24:32.973Z,32.07
2022-12-05T01:26:59.869Z,26.40
2022-12-05T01:29:26.780Z,27.40
2022-12-05T01:31:55.087Z,27.33
2022-12-05T01:34:22.491Z,30.17
2022-12-05T01:36:49.415Z,31.00
2022-12-05T01:39:16.867Z,30.60
2022-12-05T01:41:48.538Z,29.77
2022-12-05T01:44:15.199Z,28.80
2022-12-05T01:46:49.619Z,25.87
2022-12-05T01:49:29.242Z,29.73
2022-12-05T01:52:14.331Z,30.40
2022-12-05T01:55:20.175Z,28.07
2022-12-05T01:57:49.158Z,26.67
2022-12-05T02:00:20.375Z,27.80
2022-12-05T02:02:54.029Z,26.50
2022-12-05T02:05:41.723Z,30.80
2022-12-05T02:08:11.809Z,28.13
2022-12-05T02:10:58.688Z,25.57
2022-12-05T02:14:02.107Z,28.00
2022-12-05T02:17:19.830Z,26.83
2022-12-05T02:20:19.494Z,26.97
2022-12-05T02:23:16.870Z,24.67
2022-12-05T02:26:15.251Z,24.00
2022-12-05T02:28:58.694Z,27.17
2022-12-05T02:32:00.341Z,24.10
2022-12-05T02:34:51.229Z,27.00
2022-12-05T02:38:03.746Z,25.30
2022-12-05T02:40:44.820Z,25.07
2022-12-05T02:43:38.730Z,25.53
2022-12-05T02:46:12.681Z,25.50
2022-12-05T02:48:44.124Z,28.60
2022-12-05T02:51:17.175Z,27.13
2022-12-05T02:53:46.686Z,22.90
2022-12-05T02:56:14.886Z,26.53
2022-12-05T02:58:52.991Z,25.60
2022-12-05T03:01:28.710Z,26.13
2022-12-05T03:03:59.356Z,23.03
2022-12-05T03:06:41.101Z,25.80
2022-12-05T03:09:36.273Z,27.80
2022-12-05T03:12:16.135Z,25.03
2022-12-05T03:15:09.433Z,24.83
2022-12-05T03:18:09.437Z,27.70
2022-12-05T03:20:52.377Z,22.60
2022-12-05T03:23:34.258Z,23.17
2022-12-05T03:26:17.742Z,22.90
2022-12-05T03:29:20.229Z,25.90
2022-12-05T03:31:56.384Z,23.50
2022-12-05T03:34:55.408Z,23.43
2022-12-05T03:37:47.043Z,21.87
2022-12-05T03:40:41.707Z,24.17
2022-12-05T03:43:49.015Z,23.13
2022-12-05T03:46:28.968Z,25.33
2022-12-05T03:49:05.048Z,24.77
2022-12-05T03:51:40.328Z,25.50
2022-12-05T03:54:22.343Z,25.07
2022-12-05T03:57:05.388Z,24.33
2022-12-05T03:59:51.057Z,23.23
2022-12-05T04:02:32.898Z,24.53
2022-12-05T04:05:13.852Z,23.83
2022-12-05T04:07:43.707Z,22.70
2022-12-05T04:10:20.562Z,21.17
2022-12-05T04:12:52.632Z,24.97
2022-12-05T04:16:01.030Z,24.33
2022-12-05T04:18:30.235Z,26.37
2022-12-05T04:21:17.448Z,19.40
2022-12-05T04:23:47.768Z,24.90
2022-12-05T04:26:31.910Z,23.47
2022-12-05T04:29:15.274Z,19.80
2022-12-05T04:31:51.369Z,20.80
2022-12-05T04:34:21.319Z,20.47
2022-12-05T04:37:00.949Z,19.67
2022-12-05T04:39:48.743Z,21.47
2022-12-05T04:42:27.303Z,22.40
2022-12-05T04:45:01.937Z,21.67
2022-12-05T04:47:43.855Z,22.63
2022-12-05T04:50:14.367Z,20.97
2022-12-05T04:52:47.613Z,23.53
2022-12-05T04:55:25.660Z,24.33
2022-12-05T04:58:08.494Z,21.10
2022-12-05T05:00:54.548Z,22.03
2022-12-05T05:03:35.393Z,24.43
2022-12-05T05:06:03.177Z,22.70
2022-12-05T05:08:30.560Z,24.40
2022-12-05T05:11:31.901Z,20.90
2022-12-05T05:13:59.146Z,20.07
2022-12-05T05:16:33.039Z,23.80
2022-12-05T05:19:01.097Z,20.37
2022-12-05T05:21:36.264Z,26.40
2022-12-05T05:24:05.531Z,24.43
2022-12-05T05:26:36.311Z,23.30
2022-12-05T05:29:03.791Z,23.87
2022-12-05T05:31:30.748Z,23.43
2022-12-05T05:33:58.803Z,24.37
2022-12-05T05:36:28.178Z,23.77
2022-12-05T05:39:12.391Z,24.40
2022-12-05T05:41:39.484Z,26.47
2022-12-05T05:44:06.366Z,26.67
2022-12-05T05:46:36.857Z,25.07
2022-12-05T05:49:04.666Z,24.27
2022-12-05T05:51:32.223Z,23.63
2022-12-05T05:54:00.990Z,23.57
2022-12-05T05:56:29.287Z,25.90
2022-12-05T05:59:01.222Z,23.83
2022-12-05T06:01:29.058Z,25.00
2022-12-05T06:03:56.616Z,23.23
2022-12-05T06:06:24.375Z,24.47
2022-12-05T06:08:59.163Z,22.77
2022-12-05T06:11:29.546Z,22.20
2022-12-05T06:14:01.028Z,26.53
2022-12-05T06:16:29.374Z,23.83
2022-12-05T06:18:56.722Z,27.10
2022-12-05T06:21:24.285Z,24.63
2022-12-05T06:23:51.388Z,24.77
2022-12-05T06:26:21.651Z,25.90
2022-12-05T06:28:48.585Z,26.57
2022-12-05T06:31:22.973Z,24.87
2022-12-05T06:33:49.902Z,27.30
2022-12-05T06:36:21.383Z,24.90
2022-12-05T06:38:48.959Z,25.83
2022-12-05T06:41:19.755Z,27.33
2022-12-05T06:43:47.305Z,27.57
2022-12-05T06:46:16.025Z,23.07
2022-12-05T06:48:43.238Z,23.03
2022-12-05T06:51:13.858Z,35.75
2022-12-05T06:53:41.279Z,28.77
2022-12-05T06:56:13.804Z,27.87
2022-12-05T06:58:48.409Z,23.43
2022-12-05T07:01:41.218Z,25.87
2022-12-05T07:04:20.648Z,23.27
2022-12-05T07:06:51.450Z,25.70
2022-12-05T07:09:44.384Z,25.47
2022-12-05T07:12:18.503Z,25.30
2022-12-05T07:14:48.583Z,25.13
2022-12-05T07:17:17.717Z,22.63
2022-12-05T07:19:44.920Z,22.43
2022-12-05T07:22:15.699Z,28.98
2022-12-05T07:24:44.404Z,26.43
2022-12-05T07:27:12.197Z,21.63
2022-12-05T07:29:38.986Z,22.57
2022-12-05T07:32:06.332Z,24.00
2022-12-05T07:34:33.200Z,21.50
2022-12-05T07:37:01.052Z,20.70
2022-12-05T07:39:28.090Z,21.83
2022-12-05T07:41:54.846Z,19.43
2022-12-05T07:44:24.135Z,18.90
2022-12-05T07:46:50.871Z,16.23
2022-12-05T07:49:17.746Z,18.50
2022-12-05T07:51:47.147Z,16.43
2022-12-05T07:54:13.868Z,18.27
2022-12-05T07:56:44.753Z,17.67
2022-12-05T07:59:14.361Z,14.97
2022-12-05T08:01:57.161Z,14.87
2022-12-05T08:04:23.956Z,16.30
2022-12-05T08:06:50.711Z,17.23
2022-12-05T08:09:17.426Z,14.27
2022-12-05T08:11:48.150Z,16.20
2022-12-05T08:14:20.531Z,13.67
2022-12-05T08:16:47.306Z,17.83
2022-12-05T08:19:16.919Z,17.17
2022-12-05T08:21:43.748Z,14.83
2022-12-05T08:24:12.242Z,17.73
2022-12-05T08:26:39.593Z,16.30
2022-12-05T08:29:12.992Z,15.43
2022-12-05T08:31:47.188Z,14.93
2022-12-05T08:34:16.457Z,14.33
2022-12-05T08:36:44.370Z,15.30
2022-12-05T08:39:16.006Z,14.57
2022-12-05T08:41:45.042Z,14.67
2022-12-05T08:44:18.376Z,14.57
2022-12-05T08:46:49.418Z,14.27
2022-12-05T08:49:17.101Z,12.90
2022-12-05T08:51:44.107Z,12.53
2022-12-05T08:54:11.756Z,14.53
2022-12-05T08:56:38.644Z,12.10
2022-12-05T08:59:06.358Z,11.67
2022-12-05T09:01:38.573Z,14.37
2022-12-05T09:04:06.511Z,12.97
2022-12-05T09:06:35.571Z,11.07
2022-12-05T09:09:08.185Z,8.90
2022-12-05T09:11:41.332Z,11.87
2022-12-05T09:14:08.375Z,12.37
2022-12-05T09:16:39.868Z,10.23
2022-12-05T09:19:17.145Z,9.33
2022-12-05T09:21:44.465Z,9.07
2022-12-05T09:24:13.176Z,8.83
2022-12-05T09:26:41.572Z,9.43
2022-12-05T09:29:16.291Z,6.87
2022-12-05T09:31:46.604Z,7.83
2022-12-05T09:34:15.122Z,7.60
2022-12-05T09:36:44.061Z,7.23
2022-12-05T09:39:11.576Z,8.30
2022-12-05T09:42:18.348Z,6.53
2022-12-05T09:45:28.827Z,6.67
2022-12-05T09:48:15.836Z,6.70
2022-12-05T09:50:58.930Z,7.10
2022-12-05T09:53:42.160Z,8.27
2022-12-05T09:56:28.718Z,8.20
2022-12-05T09:58:58.366Z,7.07
2022-12-05T10:02:04.131Z,9.07
2022-12-05T10:04:46.232Z,6.50
2022-12-05T10:07:59.151Z,7.80
2022-12-05T10:11:00.788Z,6.23
2022-12-05T10:13:48.390Z,6.87
2022-12-05T10:16:29.710Z,6.17
2022-12-05T10:19:10.915Z,7.17
2022-12-05T10:22:04.108Z,5.77
2022-12-05T10:24:46.577Z,6.70
2022-12-05T10:27:27.443Z,4.33
2022-12-05T10:30:14.492Z,5.10
2022-12-05T10:33:09.292Z,6.20
2022-12-05T10:35:42.018Z,7.67
2022-12-05T10:38:47.573Z,5.07
2022-12-05T10:41:15.325Z,7.63
2022-12-05T10:43:45.387Z,5.47
2022-12-05T10:46:17.012Z,4.20
2022-12-05T10:48:46.956Z,3.50
2022-12-05T10:51:23.799Z,5.90
2022-12-05T10:53:52.223Z,4.40
2022-12-05T10:56:41.698Z,4.07
2022-12-05T10:59:25.025Z,4.57
2022-12-05T11:01:57.299Z,3.40
2022-12-05T11:04:40.770Z,4.23
2022-12-05T11:07:07.543Z,4.23
2022-12-05T11:09:37.623Z,3.40
2022-12-05T11:12:32.974Z,3.63
2022-12-05T11:15:10.215Z,3.80
2022-12-05T11:17:39.915Z,4.77
2022-12-05T11:20:26.887Z,3.93
2022-12-05T11:22:56.629Z,4.80
2022-12-05T11:25:35.631Z,3.97
2022-12-05T11:28:32.742Z,4.10
2022-12-05T11:31:21.107Z,3.07
2022-12-05T11:34:23.540Z,3.60
2022-12-05T11:37:03.193Z,4.07
2022-12-05T11:39:30.099Z,4.53
2022-12-05T11:43:03.523Z,4.43
2022-12-05T11:46:33.847Z,3.70
2022-12-05T11:49:20.612Z,5.90
2022-12-05T11:52:15.106Z,5.47
2022-12-05T11:55:51.674Z,4.97
2022-12-05T11:59:18.188Z,4.93
2022-12-05T12:02:26.472Z,5.77
2022-12-05T12:04:59.391Z,5.13
2022-12-05T12:07:48.010Z,3.93
2022-12-05T12:10:22.939Z,4.90
2022-12-05T12:13:34.087Z,3.47
2022-12-05T12:16:31.488Z,3.33
2022-12-05T12:19:13.132Z,4.30
2022-12-05T12:22:30.278Z,3.87
2022-12-05T12:25:52.094Z,4.70
2022-12-05T12:28:42.526Z,4.60
2022-12-05T12:31:55.525Z,5.50
2022-12-05T12:35:04.484Z,4.80
2022-12-05T12:38:12.428Z,4.87
2022-12-05T12:41:14.348Z,4.90
2022-12-05T12:43:55.999Z,4.83
2022-12-05T12:46:38.144Z,5.10
2022-12-05T12:49:29.534Z,4.87
2022-12-05T12:52:26.521Z,5.43
2022-12-05T12:55:22.079Z,4.13
2022-12-05T12:58:16.896Z,4.73
2022-12-05T13:01:13.707Z,5.80
2022-12-05T13:04:02.335Z,6.40
2022-12-05T13:06:42.654Z,6.40
2022-12-05T13:09:40.226Z,7.93
2022-12-05T13:12:14.491Z,7.27
2022-12-05T13:15:00.208Z,6.90
2022-12-05T13:17:29.176Z,4.53
2022-12-05T13:19:57.596Z,5.90
2022-12-05T13:22:28.573Z,5.77
2022-12-05T13:24:58.481Z,4.33
2022-12-05T13:27:28.392Z,3.70
2022-12-05T13:30:03.426Z,3.93
2022-12-05T13:32:40.727Z,3.07
2022-12-05T13:35:07.364Z,5.07
2022-12-05T13:37:54.445Z,4.13
2022-12-05T13:40:51.049Z,5.07
2022-12-05T13:43:29.257Z,4.63
2022-12-05T13:46:22.874Z,4.50
2022-12-05T13:48:50.439Z,5.83
2022-12-05T13:51:34.031Z,6.83
2022-12-05T13:54:19.948Z,5.90
2022-12-05T13:56:50.499Z,4.10
2022-12-05T14:00:10.457Z,5.37
2022-12-05T14:02:55.798Z,4.50
2022-12-05T14:05:22.495Z,3.57
2022-12-05T14:08:03.471Z,3.33
2022-12-05T14:10:36.650Z,4.43
2022-12-05T14:13:31.153Z,3.07
2022-12-05T14:16:42.169Z,3.07
2022-12-05T14:19:47.417Z,3.07
2022-12-05T14:22:46.691Z,3.83
2022-12-05T14:25:53.165Z,3.83
2022-12-05T14:29:10.674Z,3.87
2022-12-05T14:32:16.979Z,3.53
2022-12-05T14:35:14.987Z,3.47
2022-12-05T14:38:02.502Z,4.33
2022-12-05T14:40:40.764Z,5.30
2022-12-05T14:43:26.209Z,4.00
2022-12-05T14:45:52.918Z,4.93
2022-12-05T14:48:47.031Z,4.53
2022-12-05T14:51:32.822Z,5.17
2022-12-05T14:54:19.844Z,3.03
2022-12-05T14:56:54.394Z,3.57
2022-12-05T14:59:45.620Z,3.83
2022-12-05T15:02:44.647Z,2.87
2022-12-05T15:05:33.994Z,2.33
2022-12-05T15:08:04.641Z,3.33
2022-12-05T15:10:39.599Z,3.83
2022-12-05T15:13:20.450Z,3.50
2022-12-05T15:16:02.816Z,3.60
2022-12-05T15:18:50.576Z,3.53
2022-12-05T15:21:38.066Z,6.23
2022-12-05T15:24:17.689Z,3.63
2022-12-05T15:26:56.762Z,4.70
2022-12-05T15:29:30.446Z,5.30
2022-12-05T15:32:12.537Z,4.47
2022-12-05T15:35:06.248Z,5.17
2022-12-05T15:37:50.535Z,7.20
2022-12-05T15:40:21.966Z,4.57
2022-12-05T15:42:52.681Z,6.20
2022-12-05T15:45:30.456Z,3.87
2022-12-05T15:48:21.230Z,5.63
2022-12-05T15:50:53.293Z,6.27
2022-12-05T15:53:44.153Z,5.90
2022-12-05T15:57:12.005Z,4.03
2022-12-05T15:59:48.599Z,5.13
2022-12-05T16:02:44.767Z,4.77
2022-12-05T16:06:01.342Z,5.73
2022-12-05T16:08:40.589Z,4.40
2022-12-05T16:11:13.718Z,7.77
2022-12-05T16:14:08.016Z,6.47
2022-12-05T16:16:38.490Z,5.70
2022-12-05T16:19:21.244Z,7.23
2022-12-05T16:22:24.266Z,8.35
2022-12-05T16:25:04.664Z,7.70
2022-12-05T16:27:39.298Z,7.87
2022-12-05T16:30:18.860Z,8.03
2022-12-05T16:32:49.155Z,6.87
2022-12-05T16:35:43.187Z,6.80
2022-12-05T16:38:32.119Z,8.97
2022-12-05T16:41:03.509Z,7.30
2022-12-05T16:43:33.194Z,11.00
2022-12-05T16:46:11.062Z,9.30
2022-12-05T16:48:39.021Z,7.33
2022-12-05T16:51:16.468Z,8.60
2022-12-05T16:53:52.715Z,11.30
2022-12-05T16:56:25.966Z,9.40
2022-12-05T16:58:52.779Z,9.00
2022-12-05T17:01:24.513Z,5.57
2022-12-05T17:03:53.809Z,6.50
2022-12-05T17:06:23.912Z,6.63
2022-12-05T17:08:53.498Z,6.10
2022-12-05T17:11:40.118Z,7.03
2022-12-05T17:14:13.120Z,6.77
2022-12-05T17:16:40.034Z,6.63
2022-12-05T17:19:06.954Z,6.17
2022-12-05T17:21:53.329Z,4.83
2022-12-05T17:24:20.175Z,7.70
2022-12-05T17:26:47.274Z,6.93
2022-12-05T17:29:16.615Z,7.83
2022-12-05T17:31:43.444Z,6.67
2022-12-05T17:34:17.754Z,7.97
2022-12-05T17:36:45.227Z,9.43
2022-12-05T17:39:12.426Z,6.33
2022-12-05T17:41:39.194Z,6.67
2022-12-05T17:44:06.459Z,5.80
2022-12-05T17:46:33.535Z,4.30
2022-12-05T17:49:00.378Z,5.23
2022-12-05T17:51:27.351Z,5.37
2022-12-05T17:53:54.506Z,4.03
2022-12-05T17:56:21.790Z,7.80
2022-12-05T17:58:49.487Z,5.43
2022-12-05T18:01:20.822Z,5.03
2022-12-05T18:03:49.308Z,5.40
2022-12-05T18:06:17.577Z,6.83
2022-12-05T18:08:45.397Z,6.90
2022-12-05T18:11:17.913Z,5.20
2022-12-05T18:13:44.594Z,4.03
2022-12-05T18:16:12.148Z,4.20
2022-12-05T18:18:39.614Z,7.37
2022-12-05T18:21:09.374Z,3.97
2022-12-05T18:23:38.297Z,4.67
2022-12-05T18:26:08.227Z,4.20
2022-12-05T18:28:37.563Z,5.10
2022-12-05T18:31:16.899Z,5.37
2022-12-05T18:33:46.190Z,6.93
2022-12-05T18:36:17.257Z,5.93
2022-12-05T18:38:54.202Z,7.30
2022-12-05T18:41:29.224Z,4.30
2022-12-05T18:43:55.966Z,4.43
2022-12-05T18:46:26.226Z,3.17
2022-12-05T18:48:53.033Z,3.83
2022-12-05T18:51:23.291Z,3.97
2022-12-05T18:53:53.657Z,4.37
2022-12-05T18:56:26.676Z,3.80
2022-12-05T18:59:04.696Z,3.87
2022-12-05T19:01:35.547Z,4.70
2022-12-05T19:04:04.584Z,5.07
2022-12-05T19:06:37.940Z,3.00
2022-12-05T19:09:15.181Z,3.90
2022-12-05T19:11:47.585Z,3.73
2022-12-05T19:14:19.273Z,4.47
2022-12-05T19:16:53.673Z,3.27
2022-12-05T19:19:24.807Z,3.47
2022-12-05T19:21:52.072Z,3.57
2022-12-05T19:24:20.159Z,3.03
2022-12-05T19:26:47.972Z,5.53
2022-12-05T19:29:16.163Z,4.73
2022-12-05T19:31:43.881Z,5.70
2022-12-05T19:34:11.345Z,4.00
2022-12-05T19:36:44.477Z,5.77
2022-12-05T19:39:23.466Z,5.53
2022-12-05T19:41:51.758Z,3.50
2022-12-05T19:44:20.562Z,4.17
2022-12-05T19:46:52.691Z,3.40
2022-12-05T19:49:19.452Z,4.13
2022-12-05T19:51:46.499Z,4.33
2022-12-05T19:54:14.313Z,3.83
2022-12-05T19:56:41.385Z,4.53
2022-12-05T19:59:10.473Z,5.67
2022-12-05T20:01:40.935Z,2.60
2022-12-05T20:04:15.915Z,4.50
2022-12-05T20:06:46.847Z,3.80
2022-12-05T20:09:17.643Z,3.17
2022-12-05T20:11:53.914Z,2.93
2022-12-05T20:14:23.139Z,2.97
2022-12-05T20:16:49.923Z,5.03
2022-12-05T20:19:16.691Z,6.47
2022-12-05T20:21:44.396Z,2.67
2022-12-05T20:24:11.915Z,2.53
2022-12-05T20:26:43.242Z,3.67
2022-12-05T20:29:10.883Z,2.17
2022-12-05T20:31:41.732Z,2.43
2022-12-05T20:34:13.362Z,3.23
2022-12-05T20:36:40.125Z,2.73
2022-12-05T20:39:13.373Z,2.10
2022-12-05T20:41:46.365Z,1.57
2022-12-05T20:44:16.463Z,3.03
2022-12-05T20:46:43.838Z,2.00
2022-12-05T20:49:13.555Z,2.77
2022-12-05T20:51:45.879Z,3.27
2022-12-05T20:54:16.525Z,3.00
2022-12-05T20:56:43.327Z,3.23
2022-12-05T20:59:12.982Z,2.87
2022-12-05T21:01:41.231Z,2.10
2022-12-05T21:04:09.065Z,2.27
2022-12-05T21:06:40.475Z,1.80
2022-12-05T21:09:26.039Z,3.00
2022-12-05T21:11:56.178Z,2.50
2022-12-05T21:14:24.349Z,2.00
2022-12-05T21:16:53.454Z,2.60
2022-12-05T21:19:21.681Z,2.80
2022-12-05T21:21:48.695Z,3.17
2022-12-05T21:24:15.463Z,2.50
2022-12-05T21:26:42.250Z,3.20
2022-12-05T21:29:10.491Z,4.53
2022-12-05T21:31:40.735Z,2.83
2022-12-05T21:34:18.006Z,2.20
2022-12-05T21:36:45.241Z,6.10
2022-12-05T21:39:12.285Z,5.20
2022-12-05T21:41:39.507Z,4.70
2022-12-05T21:44:07.183Z,4.40
2022-12-05T21:46:34.452Z,5.67
2022-12-05T21:49:01.505Z,4.57
2022-12-05T21:51:28.436Z,4.90
2022-12-05T21:53:55.179Z,5.30
2022-12-05T21:56:23.491Z,5.37
2022-12-05T21:58:50.478Z,5.67
2022-12-05T22:01:28.798Z,4.63
2022-12-05T22:03:59.765Z,6.87
2022-12-05T22:06:28.172Z,7.10
2022-12-05T22:08:55.632Z,5.60
2022-12-05T22:11:24.437Z,5.03
2022-12-05T22:13:52.392Z,5.77
2022-12-05T22:16:20.245Z,6.17
2022-12-05T22:18:47.316Z,7.77
2022-12-05T22:21:22.591Z,6.73
2022-12-05T22:23:50.121Z,7.40
2022-12-05T22:26:31.505Z,10.20
2022-12-05T22:28:58.215Z,5.70
2022-12-05T22:31:25.253Z,7.23
2022-12-05T22:33:52.085Z,4.37
2022-12-05T22:36:20.228Z,6.00
2022-12-05T22:38:50.366Z,5.43
2022-12-05T22:41:23.895Z,6.30
2022-12-05T22:44:01.071Z,6.97
2022-12-05T22:46:29.194Z,8.47
2022-12-05T22:48:56.493Z,6.63
2022-12-05T22:51:23.618Z,5.67
2022-12-05T22:53:54.135Z,6.23
2022-12-05T22:56:25.051Z,6.70
2022-12-05T22:58:58.572Z,11.27
2022-12-05T23:01:45.866Z,5.97
2022-12-05T23:04:12.800Z,6.70
2022-12-05T23:06:39.961Z,6.90
2022-12-05T23:09:10.861Z,8.67
2022-12-05T23:11:40.210Z,5.40
2022-12-05T23:14:07.118Z,7.83
2022-12-05T23:16:34.096Z,5.27
2022-12-05T23:19:05.575Z,6.03
2022-12-05T23:21:39.300Z,7.23
2022-12-05T23:24:12.873Z,7.63
2022-12-05T23:26:59.635Z,8.87
2022-12-05T23:29:26.444Z,5.83
2022-12-05T23:31:53.207Z,7.47
2022-12-05T23:34:20.287Z,6.07
2022-12-05T23:36:47.161Z,5.73
2022-12-05T23:39:14.015Z,6.67
2022-12-05T23:41:40.873Z,6.30
2022-12-05T23:44:07.611Z,5.13
2022-12-05T23:46:35.004Z,4.93
2022-12-05T23:49:01.904Z,10.03
2022-12-05T23:51:33.546Z,4.93
2022-12-05T23:54:02.342Z,4.23
2022-12-05T23:56:33.275Z,7.47
2022-12-05T23:59:04.054Z,4.40
